This demonstration page uses our WeatherBlox Daily Observations layout. Learn more.

Left ArrowRight Arrow

36.19886, -115.1175

Hourly Observations for August 28, 2020

Temp ( °F °C ) Dew Point ( °F °C ) Humidity (%) Winds ( mph kmh ) Pressure ( in mb ) Visibility ( mi km ) Precip ( " mm )
12:53 am 00:53 Clear 91 32.8 27 -2.8 10 10 WSW 9 15 29.69 1005 10 16.0934 0 0
1:53 am 01:53 Clear 88 31.1 29 -1.7 12 12 N 3 6 29.69 1006 10 16.0934 0 0
2:53 am 02:53 Clear 85 29.4 28 -2.2 13 13 Calm 29.71 1006 10 16.0934 0 0
3:53 am 03:53 Clear 82 27.8 33 0.6 17 17 WNW 3 6 29.72 1006 10 16.0934 0 0
4:53 am 04:53 Clear 80 26.7 32 0 17 17 WNW 3 6 29.72 1007 10 16.0934 0 0
5:53 am 05:53 Clear 80 26.7 33 0.6 18 18 WNW 5 7 29.75 1007 10 16.0934 0 0
6:53 am 06:53 Sunny 79 26.1 32 0 18 18 NW 7 11 29.78 1008 10 16.0934 0 0
7:53 am 07:53 Sunny 84 28.9 33 0.6 16 16 NNW 6 9 29.79 1009 10 16.0934 0 0
8:53 am 08:53 Sunny 89 31.7 32 0 13 13 Calm 29.79 1009 10 16.0934 0 0
9:53 am 09:53 Sunny 92 33.3 31 -0.6 11 11 Calm 29.8 1009 10 16.0934 0 0
10:53 am 10:53 Sunny 96 35.6 29 -1.7 9 9 Calm 29.8 1009 10 16.0934 0 0
11:53 am 11:53 Sunny 100 37.8 31 -0.6 9 9 SSE 5 7 29.78 1008 10 16.0934 0 0
12:53 pm 12:53 Sunny 105 40.6 30 -1.1 7 7 SE 7 11 29.76 1008 10 16.0934 0 0
1:53 pm 13:53 Sunny 105 40.6 31 -0.6 7 7 VRB 5 7 29.74 1007 10 16.0934 0 0
2:53 pm 14:53 Sunny 105 40.6 34 1.1 8 8 SW 5 7 29.72 1006 10 16.0934 0 0
3:53 pm 15:53 Sunny 107 41.7 34 1.1 8 8 S 10 17 29.7 1006 10 16.0934 0 0
4:53 pm 16:53 Sunny 107 41.7 34 1.1 8 8 W 14 22 29.7 1006 10 16.0934 0 0
5:53 pm 17:53 Sunny 106 41.1 35 1.7 9 9 WSW 13 20 29.7 1006 10 16.0934 0 0
6:53 pm 18:53 Sunny 104 40 35 1.7 9 9 SSW 6 9 29.7 1006 10 16.0934 0 0
7:53 pm 19:53 Clear 102 38.9 35 1.7 10 10 WSW 9 15 29.72 1006 10 16.0934 0 0
8:53 pm 20:53 Clear 99 37.2 35 1.7 11 11 W 7 11 29.73 1007 10 16.0934 0 0
9:53 pm 21:53 Clear 97 36.1 35 1.7 11 11 W 6 9 29.74 1007 10 16.0934 0 0
10:53 pm 22:53 Clear 96 35.6 34 1.1 11 11 NW 5 7 29.74 1007 10 16.0934 0 0
11:53 pm 23:53 Clear 94 34.4 34 1.1 12 12 E 6 9 29.75 1007 10 16.0934 0 0

Powered by AerisWeather